sensor_id;sensor_type;location;lat;lon;timestamp;P1;durP1;ratioP1;P2;durP2;ratioP2
4244;SDS011;2136;48.502;9.194;2023-04-24T00:00:39;2.37;;;0.73;;
4244;SDS011;2136;48.502;9.194;2023-04-24T00:03:07;1.73;;;0.60;;
4244;SDS011;2136;48.502;9.194;2023-04-24T00:05:34;0.77;;;0.77;;
4244;SDS011;2136;48.502;9.194;2023-04-24T00:08:00;3.13;;;0.70;;
4244;SDS011;2136;48.502;9.194;2023-04-24T00:10:27;1.47;;;0.83;;
4244;SDS011;2136;48.502;9.194;2023-04-24T00:12:54;0.97;;;0.80;;
4244;SDS011;2136;48.502;9.194;2023-04-24T00:15:23;0.70;;;0.70;;
4244;SDS011;2136;48.502;9.194;2023-04-24T00:17:50;1.03;;;0.80;;
4244;SDS011;2136;48.502;9.194;2023-04-24T00:20:17;1.00;;;1.00;;
4244;SDS011;2136;48.502;9.194;2023-04-24T00:22:44;1.60;;;0.90;;
4244;SDS011;2136;48.502;9.194;2023-04-24T00:25:10;1.00;;;0.90;;
4244;SDS011;2136;48.502;9.194;2023-04-24T00:27:37;1.00;;;0.80;;
4244;SDS011;2136;48.502;9.194;2023-04-24T00:30:05;0.80;;;0.80;;
4244;SDS011;2136;48.502;9.194;2023-04-24T00:32:33;2.00;;;1.00;;
4244;SDS011;2136;48.502;9.194;2023-04-24T00:35:00;0.70;;;0.70;;
4244;SDS011;2136;48.502;9.194;2023-04-24T00:37:27;0.80;;;0.80;;
4244;SDS011;2136;48.502;9.194;2023-04-24T00:39:54;0.70;;;0.70;;
4244;SDS011;2136;48.502;9.194;2023-04-24T00:42:21;0.73;;;0.73;;
4244;SDS011;2136;48.502;9.194;2023-04-24T00:44:48;1.60;;;0.90;;
4244;SDS011;2136;48.502;9.194;2023-04-24T00:47:15;1.00;;;0.80;;
4244;SDS011;2136;48.502;9.194;2023-04-24T00:49:44;0.90;;;0.90;;
4244;SDS011;2136;48.502;9.194;2023-04-24T00:52:11;0.93;;;0.80;;
4244;SDS011;2136;48.502;9.194;2023-04-24T00:54:42;1.13;;;1.00;;
4244;SDS011;2136;48.502;9.194;2023-04-24T00:57:09;0.80;;;0.80;;
4244;SDS011;2136;48.502;9.194;2023-04-24T00:59:36;2.03;;;1.03;;
4244;SDS011;2136;48.502;9.194;2023-04-24T01:02:03;1.07;;;0.97;;
4244;SDS011;2136;48.502;9.194;2023-04-24T01:04:31;0.80;;;0.80;;
4244;SDS011;2136;48.502;9.194;2023-04-24T01:06:59;0.80;;;0.80;;
4244;SDS011;2136;48.502;9.194;2023-04-24T01:09:26;1.17;;;0.80;;
4244;SDS011;2136;48.502;9.194;2023-04-24T01:11:53;1.00;;;0.80;;
4244;SDS011;2136;48.502;9.194;2023-04-24T01:14:21;1.23;;;0.90;;
4244;SDS011;2136;48.502;9.194;2023-04-24T01:16:48;1.13;;;1.03;;
4244;SDS011;2136;48.502;9.194;2023-04-24T01:19:15;1.07;;;0.80;;
4244;SDS011;2136;48.502;9.194;2023-04-24T01:21:44;2.57;;;0.93;;
4244;SDS011;2136;48.502;9.194;2023-04-24T01:24:18;1.30;;;1.20;;
4244;SDS011;2136;48.502;9.194;2023-04-24T01:26:45;3.80;;;1.20;;
4244;SDS011;2136;48.502;9.194;2023-04-24T01:29:12;0.80;;;0.80;;
4244;SDS011;2136;48.502;9.194;2023-04-24T01:31:39;3.83;;;0.80;;
4244;SDS011;2136;48.502;9.194;2023-04-24T01:34:06;0.70;;;0.60;;
4244;SDS011;2136;48.502;9.194;2023-04-24T01:36:34;4.30;;;1.00;;
4244;SDS011;2136;48.502;9.194;2023-04-24T01:39:01;0.87;;;0.80;;
4244;SDS011;2136;48.502;9.194;2023-04-24T01:41:30;1.07;;;0.97;;
4244;SDS011;2136;48.502;9.194;2023-04-24T01:43:57;0.80;;;0.80;;
4244;SDS011;2136;48.502;9.194;2023-04-24T01:46:24;0.60;;;0.60;;
4244;SDS011;2136;48.502;9.194;2023-04-24T01:48:51;0.70;;;0.70;;
4244;SDS011;2136;48.502;9.194;2023-04-24T01:51:18;1.10;;;1.00;;
4244;SDS011;2136;48.502;9.194;2023-04-24T01:53:45;0.77;;;0.60;;
4244;SDS011;2136;48.502;9.194;2023-04-24T01:56:12;7.73;;;1.00;;
4244;SDS011;2136;48.502;9.194;2023-04-24T01:58:41;2.83;;;1.20;;
4244;SDS011;2136;48.502;9.194;2023-04-24T02:01:09;1.60;;;1.27;;
4244;SDS011;2136;48.502;9.194;2023-04-24T02:03:40;0.80;;;0.80;;
4244;SDS011;2136;48.502;9.194;2023-04-24T02:06:07;0.90;;;0.80;;
4244;SDS011;2136;48.502;9.194;2023-04-24T02:08:34;1.70;;;1.00;;
4244;SDS011;2136;48.502;9.194;2023-04-24T02:11:01;8.13;;;1.20;;
4244;SDS011;2136;48.502;9.194;2023-04-24T02:13:28;0.87;;;0.87;;
4244;SDS011;2136;48.502;9.194;2023-04-24T02:15:56;4.17;;;0.90;;
4244;SDS011;2136;48.502;9.194;2023-04-24T02:18:24;1.40;;;1.30;;
4244;SDS011;2136;48.502;9.194;2023-04-24T02:20:51;1.73;;;1.00;;
4244;SDS011;2136;48.502;9.194;2023-04-24T02:23:18;1.47;;;1.00;;
4244;SDS011;2136;48.502;9.194;2023-04-24T02:25:45;0.80;;;0.80;;
4244;SDS011;2136;48.502;9.194;2023-04-24T02:28:12;1.53;;;1.00;;
4244;SDS011;2136;48.502;9.194;2023-04-24T02:30:41;3.43;;;0.97;;
4244;SDS011;2136;48.502;9.194;2023-04-24T02:33:09;1.07;;;0.90;;
4244;SDS011;2136;48.502;9.194;2023-04-24T02:35:37;1.27;;;1.17;;
4244;SDS011;2136;48.502;9.194;2023-04-24T02:38:03;1.77;;;0.90;;
4244;SDS011;2136;48.502;9.194;2023-04-24T02:40:30;5.30;;;1.13;;
4244;SDS011;2136;48.502;9.194;2023-04-24T02:42:58;1.03;;;0.70;;
4244;SDS011;2136;48.502;9.194;2023-04-24T02:45:25;5.20;;;1.10;;
4244;SDS011;2136;48.502;9.194;2023-04-24T02:47:52;2.10;;;1.23;;
4244;SDS011;2136;48.502;9.194;2023-04-24T02:50:20;1.70;;;1.23;;
4244;SDS011;2136;48.502;9.194;2023-04-24T02:52:47;2.00;;;0.87;;
4244;SDS011;2136;48.502;9.194;2023-04-24T02:55:13;2.40;;;0.90;;
4244;SDS011;2136;48.502;9.194;2023-04-24T02:57:40;1.93;;;1.00;;
4244;SDS011;2136;48.502;9.194;2023-04-24T03:00:07;2.27;;;0.80;;
4244;SDS011;2136;48.502;9.194;2023-04-24T03:02:36;2.97;;;0.90;;
4244;SDS011;2136;48.502;9.194;2023-04-24T03:05:03;3.53;;;1.10;;
4244;SDS011;2136;48.502;9.194;2023-04-24T03:07:31;1.53;;;1.17;;
4244;SDS011;2136;48.502;9.194;2023-04-24T03:09:58;3.00;;;0.90;;
4244;SDS011;2136;48.502;9.194;2023-04-24T03:12:25;3.03;;;1.20;;
4244;SDS011;2136;48.502;9.194;2023-04-24T03:14:52;1.20;;;1.10;;
4244;SDS011;2136;48.502;9.194;2023-04-24T03:17:19;2.80;;;1.40;;
4244;SDS011;2136;48.502;9.194;2023-04-24T03:19:46;1.53;;;0.90;;
4244;SDS011;2136;48.502;9.194;2023-04-24T03:22:13;1.33;;;0.80;;
4244;SDS011;2136;48.502;9.194;2023-04-24T03:24:41;2.30;;;1.10;;
4244;SDS011;2136;48.502;9.194;2023-04-24T03:27:08;1.20;;;1.10;;
4244;SDS011;2136;48.502;9.194;2023-04-24T03:29:35;3.80;;;1.10;;
4244;SDS011;2136;48.502;9.194;2023-04-24T03:32:01;4.17;;;1.20;;
4244;SDS011;2136;48.502;9.194;2023-04-24T03:34:28;3.07;;;1.30;;
4244;SDS011;2136;48.502;9.194;2023-04-24T03:36:55;6.33;;;1.47;;
4244;SDS011;2136;48.502;9.194;2023-04-24T03:39:22;1.37;;;0.70;;
4244;SDS011;2136;48.502;9.194;2023-04-24T03:41:51;0.80;;;0.80;;
4244;SDS011;2136;48.502;9.194;2023-04-24T03:44:18;0.90;;;0.90;;
4244;SDS011;2136;48.502;9.194;2023-04-24T03:46:45;0.80;;;0.80;;
4244;SDS011;2136;48.502;9.194;2023-04-24T03:49:12;0.90;;;0.90;;
4244;SDS011;2136;48.502;9.194;2023-04-24T03:51:38;4.43;;;1.20;;
4244;SDS011;2136;48.502;9.194;2023-04-24T03:54:05;0.90;;;0.80;;
4244;SDS011;2136;48.502;9.194;2023-04-24T03:56:32;1.47;;;1.10;;
4244;SDS011;2136;48.502;9.194;2023-04-24T03:59:00;0.97;;;0.87;;
4244;SDS011;2136;48.502;9.194;2023-04-24T04:01:27;2.40;;;0.90;;
4244;SDS011;2136;48.502;9.194;2023-04-24T04:03:55;4.83;;;0.80;;
4244;SDS011;2136;48.502;9.194;2023-04-24T04:06:22;1.13;;;1.00;;
4244;SDS011;2136;48.502;9.194;2023-04-24T04:08:49;1.70;;;0.87;;
4244;SDS011;2136;48.502;9.194;2023-04-24T04:11:16;1.87;;;1.77;;
4244;SDS011;2136;48.502;9.194;2023-04-24T04:13:43;2.10;;;2.00;;
4244;SDS011;2136;48.502;9.194;2023-04-24T04:16:12;2.40;;;2.20;;
4244;SDS011;2136;48.502;9.194;2023-04-24T04:18:39;1.73;;;1.60;;
4244;SDS011;2136;48.502;9.194;2023-04-24T04:21:05;1.77;;;1.40;;
4244;SDS011;2136;48.502;9.194;2023-04-24T04:23:32;0.80;;;0.80;;
4244;SDS011;2136;48.502;9.194;2023-04-24T04:25:59;1.17;;;1.00;;
4244;SDS011;2136;48.502;9.194;2023-04-24T04:28:26;1.83;;;0.97;;
4244;SDS011;2136;48.502;9.194;2023-04-24T04:30:53;1.43;;;1.03;;
4244;SDS011;2136;48.502;9.194;2023-04-24T04:33:22;0.90;;;0.90;;
4244;SDS011;2136;48.502;9.194;2023-04-24T04:35:49;1.17;;;1.00;;
4244;SDS011;2136;48.502;9.194;2023-04-24T04:38:17;2.30;;;0.90;;
4244;SDS011;2136;48.502;9.194;2023-04-24T04:40:44;1.43;;;1.03;;
4244;SDS011;2136;48.502;9.194;2023-04-24T04:43:11;2.30;;;1.07;;
4244;SDS011;2136;48.502;9.194;2023-04-24T04:45:40;1.20;;;1.10;;
4244;SDS011;2136;48.502;9.194;2023-04-24T04:48:08;1.57;;;1.00;;
4244;SDS011;2136;48.502;9.194;2023-04-24T04:50:39;3.70;;;1.27;;
4244;SDS011;2136;48.502;9.194;2023-04-24T04:53:06;4.97;;;1.60;;
4244;SDS011;2136;48.502;9.194;2023-04-24T04:55:32;2.53;;;1.70;;
4244;SDS011;2136;48.502;9.194;2023-04-24T04:57:59;4.00;;;1.30;;
4244;SDS011;2136;48.502;9.194;2023-04-24T05:00:26;1.10;;;1.00;;
4244;SDS011;2136;48.502;9.194;2023-04-24T05:02:54;4.10;;;1.00;;
4244;SDS011;2136;48.502;9.194;2023-04-24T05:05:21;2.10;;;1.03;;
4244;SDS011;2136;48.502;9.194;2023-04-24T05:07:49;2.37;;;0.87;;
4244;SDS011;2136;48.502;9.194;2023-04-24T05:10:16;2.23;;;1.00;;
4244;SDS011;2136;48.502;9.194;2023-04-24T05:12:42;1.30;;;1.20;;
4244;SDS011;2136;48.502;9.194;2023-04-24T05:15:10;5.70;;;1.30;;
4244;SDS011;2136;48.502;9.194;2023-04-24T05:17:37;2.30;;;1.23;;
4244;SDS011;2136;48.502;9.194;2023-04-24T05:20:05;1.40;;;1.30;;
4244;SDS011;2136;48.502;9.194;2023-04-24T05:22:33;1.00;;;1.00;;
4244;SDS011;2136;48.502;9.194;2023-04-24T05:25:02;1.27;;;1.17;;
4244;SDS011;2136;48.502;9.194;2023-04-24T05:27:29;1.23;;;1.10;;
4244;SDS011;2136;48.502;9.194;2023-04-24T05:29:56;3.10;;;1.40;;
4244;SDS011;2136;48.502;9.194;2023-04-24T05:32:23;1.70;;;1.60;;
4244;SDS011;2136;48.502;9.194;2023-04-24T05:34:49;4.23;;;1.60;;
4244;SDS011;2136;48.502;9.194;2023-04-24T05:37:16;2.80;;;1.40;;
4244;SDS011;2136;48.502;9.194;2023-04-24T05:39:43;1.90;;;1.40;;
4244;SDS011;2136;48.502;9.194;2023-04-24T05:42:11;5.97;;;1.70;;
4244;SDS011;2136;48.502;9.194;2023-04-24T05:44:38;2.20;;;1.33;;
4244;SDS011;2136;48.502;9.194;2023-04-24T05:47:05;2.10;;;1.93;;
4244;SDS011;2136;48.502;9.194;2023-04-24T05:49:32;7.67;;;1.63;;
4244;SDS011;2136;48.502;9.194;2023-04-24T05:51:59;1.87;;;1.73;;
4244;SDS011;2136;48.502;9.194;2023-04-24T05:54:26;1.83;;;1.30;;
4244;SDS011;2136;48.502;9.194;2023-04-24T05:56:53;1.77;;;1.10;;
4244;SDS011;2136;48.502;9.194;2023-04-24T05:59:21;9.37;;;1.53;;
4244;SDS011;2136;48.502;9.194;2023-04-24T06:01:48;1.53;;;1.43;;
4244;SDS011;2136;48.502;9.194;2023-04-24T06:04:15;1.70;;;1.60;;
4244;SDS011;2136;48.502;9.194;2023-04-24T06:06:42;2.13;;;1.60;;
4244;SDS011;2136;48.502;9.194;2023-04-24T06:09:09;1.73;;;1.63;;
4244;SDS011;2136;48.502;9.194;2023-04-24T06:11:37;1.83;;;1.60;;
4244;SDS011;2136;48.502;9.194;2023-04-24T06:14:03;4.97;;;1.87;;
4244;SDS011;2136;48.502;9.194;2023-04-24T06:16:32;4.93;;;1.57;;
4244;SDS011;2136;48.502;9.194;2023-04-24T06:18:58;3.03;;;1.57;;
4244;SDS011;2136;48.502;9.194;2023-04-24T06:21:25;1.80;;;1.70;;
4244;SDS011;2136;48.502;9.194;2023-04-24T06:23:52;1.30;;;1.20;;
4244;SDS011;2136;48.502;9.194;2023-04-24T06:26:21;1.80;;;1.70;;
4244;SDS011;2136;48.502;9.194;2023-04-24T06:28:49;2.20;;;1.67;;
4244;SDS011;2136;48.502;9.194;2023-04-24T06:31:16;1.53;;;1.43;;
4244;SDS011;2136;48.502;9.194;2023-04-24T06:33:44;1.40;;;1.30;;
4244;SDS011;2136;48.502;9.194;2023-04-24T06:36:11;1.40;;;1.40;;
4244;SDS011;2136;48.502;9.194;2023-04-24T06:38:38;1.60;;;1.50;;
4244;SDS011;2136;48.502;9.194;2023-04-24T06:41:05;1.53;;;1.43;;
4244;SDS011;2136;48.502;9.194;2023-04-24T06:43:32;1.70;;;1.60;;
4244;SDS011;2136;48.502;9.194;2023-04-24T06:45:59;1.70;;;1.47;;
4244;SDS011;2136;48.502;9.194;2023-04-24T06:48:28;1.50;;;1.40;;
4244;SDS011;2136;48.502;9.194;2023-04-24T06:50:56;1.50;;;1.40;;
4244;SDS011;2136;48.502;9.194;2023-04-24T06:53:23;1.80;;;1.70;;
4244;SDS011;2136;48.502;9.194;2023-04-24T06:55:50;1.60;;;1.50;;
4244;SDS011;2136;48.502;9.194;2023-04-24T06:58:17;1.40;;;1.30;;
4244;SDS011;2136;48.502;9.194;2023-04-24T07:00:44;1.53;;;1.43;;
4244;SDS011;2136;48.502;9.194;2023-04-24T07:03:11;1.70;;;1.60;;
4244;SDS011;2136;48.502;9.194;2023-04-24T07:05:37;4.10;;;2.23;;
4244;SDS011;2136;48.502;9.194;2023-04-24T07:08:06;1.80;;;1.40;;
4244;SDS011;2136;48.502;9.194;2023-04-24T07:10:33;4.40;;;1.63;;
4244;SDS011;2136;48.502;9.194;2023-04-24T07:13:01;1.87;;;1.70;;
4244;SDS011;2136;48.502;9.194;2023-04-24T07:15:27;2.80;;;1.87;;
4244;SDS011;2136;48.502;9.194;2023-04-24T07:17:54;3.10;;;1.90;;
4244;SDS011;2136;48.502;9.194;2023-04-24T07:20:21;1.77;;;1.67;;
4244;SDS011;2136;48.502;9.194;2023-04-24T07:22:48;2.53;;;1.67;;
4244;SDS011;2136;48.502;9.194;2023-04-24T07:25:18;1.80;;;1.60;;
4244;SDS011;2136;48.502;9.194;2023-04-24T07:27:45;3.10;;;1.70;;
4244;SDS011;2136;48.502;9.194;2023-04-24T07:30:13;1.70;;;1.60;;
4244;SDS011;2136;48.502;9.194;2023-04-24T07:32:40;1.83;;;1.73;;
4244;SDS011;2136;48.502;9.194;2023-04-24T07:35:07;1.60;;;1.50;;
4244;SDS011;2136;48.502;9.194;2023-04-24T07:37:35;2.50;;;1.30;;
4244;SDS011;2136;48.502;9.194;2023-04-24T07:40:02;1.13;;;1.10;;
4244;SDS011;2136;48.502;9.194;2023-04-24T07:42:30;1.43;;;1.33;;
4244;SDS011;2136;48.502;9.194;2023-04-24T07:44:59;1.20;;;1.20;;
4244;SDS011;2136;48.502;9.194;2023-04-24T07:47:26;1.50;;;1.40;;
4244;SDS011;2136;48.502;9.194;2023-04-24T07:49:53;1.10;;;1.10;;
4244;SDS011;2136;48.502;9.194;2023-04-24T07:52:20;1.50;;;1.40;;
4244;SDS011;2136;48.502;9.194;2023-04-24T07:54:47;1.53;;;1.40;;
4244;SDS011;2136;48.502;9.194;2023-04-24T07:57:14;2.80;;;1.43;;
4244;SDS011;2136;48.502;9.194;2023-04-24T07:59:43;1.90;;;1.80;;
4244;SDS011;2136;48.502;9.194;2023-04-24T08:02:09;4.00;;;1.80;;
4244;SDS011;2136;48.502;9.194;2023-04-24T08:04:36;1.40;;;1.30;;
4244;SDS011;2136;48.502;9.194;2023-04-24T08:07:03;3.23;;;1.70;;
4244;SDS011;2136;48.502;9.194;2023-04-24T08:09:30;1.53;;;1.43;;
4244;SDS011;2136;48.502;9.194;2023-04-24T08:11:57;3.05;;;1.42;;
4244;SDS011;2136;48.502;9.194;2023-04-24T08:14:24;2.50;;;1.77;;
4244;SDS011;2136;48.502;9.194;2023-04-24T08:16:53;1.10;;;1.00;;
4244;SDS011;2136;48.502;9.194;2023-04-24T08:19:21;1.10;;;1.10;;
4244;SDS011;2136;48.502;9.194;2023-04-24T08:21:48;1.20;;;1.20;;
4244;SDS011;2136;48.502;9.194;2023-04-24T08:24:15;1.07;;;1.07;;
4244;SDS011;2136;48.502;9.194;2023-04-24T08:26:42;1.20;;;1.20;;
4244;SDS011;2136;48.502;9.194;2023-04-24T08:29:08;3.93;;;1.50;;
4244;SDS011;2136;48.502;9.194;2023-04-24T08:31:35;1.70;;;1.60;;
4244;SDS011;2136;48.502;9.194;2023-04-24T08:34:04;3.50;;;1.70;;
4244;SDS011;2136;48.502;9.194;2023-04-24T08:36:30;2.10;;;1.80;;
4244;SDS011;2136;48.502;9.194;2023-04-24T08:38:58;2.27;;;2.17;;
4244;SDS011;2136;48.502;9.194;2023-04-24T08:41:25;1.73;;;1.60;;
4244;SDS011;2136;48.502;9.194;2023-04-24T08:43:53;7.83;;;1.40;;
4244;SDS011;2136;48.502;9.194;2023-04-24T08:46:23;2.23;;;1.50;;
4244;SDS011;2136;48.502;9.194;2023-04-24T08:48:51;1.70;;;1.60;;
4244;SDS011;2136;48.502;9.194;2023-04-24T08:51:20;1.53;;;1.43;;
4244;SDS011;2136;48.502;9.194;2023-04-24T08:53:47;2.73;;;1.63;;
4244;SDS011;2136;48.502;9.194;2023-04-24T08:56:15;4.80;;;1.87;;
4244;SDS011;2136;48.502;9.194;2023-04-24T08:58:42;2.57;;;1.50;;
4244;SDS011;2136;48.502;9.194;2023-04-24T09:01:10;2.20;;;1.43;;
4244;SDS011;2136;48.502;9.194;2023-04-24T09:03:38;1.73;;;1.63;;
4244;SDS011;2136;48.502;9.194;2023-04-24T09:06:05;2.33;;;1.83;;
4244;SDS011;2136;48.502;9.194;2023-04-24T09:08:35;1.93;;;1.40;;
4244;SDS011;2136;48.502;9.194;2023-04-24T09:11:02;1.43;;;1.33;;
4244;SDS011;2136;48.502;9.194;2023-04-24T09:13:30;1.20;;;1.20;;
4244;SDS011;2136;48.502;9.194;2023-04-24T09:15:58;4.10;;;2.80;;
4244;SDS011;2136;48.502;9.194;2023-04-24T09:18:25;2.10;;;1.40;;
4244;SDS011;2136;48.502;9.194;2023-04-24T09:20:59;1.93;;;1.20;;
4244;SDS011;2136;48.502;9.194;2023-04-24T09:23:27;2.53;;;1.10;;
4244;SDS011;2136;48.502;9.194;2023-04-24T09:25:56;1.90;;;1.30;;
4244;SDS011;2136;48.502;9.194;2023-04-24T09:28:25;1.30;;;1.20;;
4244;SDS011;2136;48.502;9.194;2023-04-24T09:31:05;2.97;;;1.50;;
4244;SDS011;2136;48.502;9.194;2023-04-24T09:33:34;4.93;;;1.03;;
4244;SDS011;2136;48.502;9.194;2023-04-24T09:36:01;3.10;;;2.10;;
4244;SDS011;2136;48.502;9.194;2023-04-24T09:38:33;4.23;;;1.70;;
4244;SDS011;2136;48.502;9.194;2023-04-24T09:41:02;1.60;;;1.50;;
4244;SDS011;2136;48.502;9.194;2023-04-24T09:43:31;1.40;;;1.30;;
4244;SDS011;2136;48.502;9.194;2023-04-24T09:45:59;1.40;;;1.30;;
4244;SDS011;2136;48.502;9.194;2023-04-24T09:48:31;4.40;;;1.27;;
4244;SDS011;2136;48.502;9.194;2023-04-24T09:50:58;1.27;;;1.17;;
4244;SDS011;2136;48.502;9.194;2023-04-24T09:53:26;2.33;;;1.10;;
4244;SDS011;2136;48.502;9.194;2023-04-24T09:55:55;1.40;;;1.30;;
4244;SDS011;2136;48.502;9.194;2023-04-24T09:58:26;1.67;;;1.57;;
4244;SDS011;2136;48.502;9.194;2023-04-24T10:00:54;1.43;;;1.33;;
4244;SDS011;2136;48.502;9.194;2023-04-24T10:03:23;1.77;;;1.17;;
4244;SDS011;2136;48.502;9.194;2023-04-24T10:05:52;1.33;;;1.23;;
4244;SDS011;2136;48.502;9.194;2023-04-24T10:08:20;1.40;;;1.30;;
4244;SDS011;2136;48.502;9.194;2023-04-24T10:10:47;2.27;;;1.40;;
4244;SDS011;2136;48.502;9.194;2023-04-24T10:13:14;1.00;;;0.90;;
4244;SDS011;2136;48.502;9.194;2023-04-24T10:15:42;1.30;;;1.20;;
4244;SDS011;2136;48.502;9.194;2023-04-24T10:18:10;3.03;;;1.70;;
4244;SDS011;2136;48.502;9.194;2023-04-24T10:20:37;3.23;;;1.33;;
4244;SDS011;2136;48.502;9.194;2023-04-24T10:23:05;4.40;;;1.00;;
4244;SDS011;2136;48.502;9.194;2023-04-24T10:25:33;3.70;;;1.47;;
4244;SDS011;2136;48.502;9.194;2023-04-24T10:28:01;1.10;;;1.10;;
4244;SDS011;2136;48.502;9.194;2023-04-24T10:30:29;2.53;;;1.10;;
4244;SDS011;2136;48.502;9.194;2023-04-24T10:33:01;0.90;;;0.90;;
4244;SDS011;2136;48.502;9.194;2023-04-24T10:35:30;1.17;;;1.07;;
4244;SDS011;2136;48.502;9.194;2023-04-24T10:37:58;1.93;;;1.20;;
4244;SDS011;2136;48.502;9.194;2023-04-24T10:40:30;2.03;;;1.30;;
4244;SDS011;2136;48.502;9.194;2023-04-24T10:42:58;3.20;;;1.03;;
4244;SDS011;2136;48.502;9.194;2023-04-24T10:45:25;1.87;;;1.00;;
4244;SDS011;2136;48.502;9.194;2023-04-24T10:47:53;1.20;;;1.10;;
4244;SDS011;2136;48.502;9.194;2023-04-24T10:50:26;1.83;;;0.97;;
4244;SDS011;2136;48.502;9.194;2023-04-24T10:53:04;4.53;;;0.87;;
4244;SDS011;2136;48.502;9.194;2023-04-24T10:55:43;1.20;;;1.10;;
4244;SDS011;2136;48.502;9.194;2023-04-24T10:58:11;1.53;;;0.90;;
4244;SDS011;2136;48.502;9.194;2023-04-24T11:00:38;0.90;;;0.90;;
4244;SDS011;2136;48.502;9.194;2023-04-24T11:03:06;2.10;;;1.40;;
4244;SDS011;2136;48.502;9.194;2023-04-24T11:05:53;1.43;;;1.30;;
4244;SDS011;2136;48.502;9.194;2023-04-24T11:08:23;1.57;;;1.30;;
4244;SDS011;2136;48.502;9.194;2023-04-24T11:10:56;2.40;;;1.00;;
4244;SDS011;2136;48.502;9.194;2023-04-24T11:16:41;2.10;;;1.00;;
4244;SDS011;2136;48.502;9.194;2023-04-24T11:19:11;3.70;;;1.10;;
4244;SDS011;2136;48.502;9.194;2023-04-24T11:21:47;1.93;;;1.20;;
4244;SDS011;2136;48.502;9.194;2023-04-24T11:24:23;1.27;;;1.17;;
4244;SDS011;2136;48.502;9.194;2023-04-24T11:26:51;7.37;;;1.43;;
4244;SDS011;2136;48.502;9.194;2023-04-24T11:29:20;1.27;;;1.10;;
4244;SDS011;2136;48.502;9.194;2023-04-24T11:31:48;3.13;;;0.90;;
4244;SDS011;2136;48.502;9.194;2023-04-24T11:34:16;1.33;;;1.23;;
4244;SDS011;2136;48.502;9.194;2023-04-24T11:36:44;1.50;;;1.40;;
4244;SDS011;2136;48.502;9.194;2023-04-24T11:39:13;0.90;;;0.90;;
4244;SDS011;2136;48.502;9.194;2023-04-24T11:41:40;1.07;;;1.03;;
4244;SDS011;2136;48.502;9.194;2023-04-24T11:44:08;5.83;;;1.17;;
4244;SDS011;2136;48.502;9.194;2023-04-24T11:46:35;0.97;;;0.97;;
4244;SDS011;2136;48.502;9.194;2023-04-24T11:49:05;1.80;;;0.90;;
4244;SDS011;2136;48.502;9.194;2023-04-24T11:51:32;8.17;;;1.03;;
4244;SDS011;2136;48.502;9.194;2023-04-24T11:54:00;4.20;;;1.00;;
4244;SDS011;2136;48.502;9.194;2023-04-24T11:56:28;1.50;;;1.03;;
4244;SDS011;2136;48.502;9.194;2023-04-24T11:58:55;2.70;;;0.83;;
4244;SDS011;2136;48.502;9.194;2023-04-24T12:01:22;0.93;;;0.93;;
4244;SDS011;2136;48.502;9.194;2023-04-24T12:03:49;0.77;;;0.77;;
4244;SDS011;2136;48.502;9.194;2023-04-24T12:06:17;1.53;;;1.00;;
4244;SDS011;2136;48.502;9.194;2023-04-24T12:08:47;1.33;;;1.23;;
4244;SDS011;2136;48.502;9.194;2023-04-24T12:11:15;0.80;;;0.80;;
4244;SDS011;2136;48.502;9.194;2023-04-24T12:13:47;2.03;;;1.20;;
4244;SDS011;2136;48.502;9.194;2023-04-24T12:16:14;1.17;;;1.10;;
4244;SDS011;2136;48.502;9.194;2023-04-24T12:18:41;3.13;;;1.30;;
4244;SDS011;2136;48.502;9.194;2023-04-24T12:21:17;0.97;;;0.97;;
4244;SDS011;2136;48.502;9.194;2023-04-24T12:23:44;0.87;;;0.87;;
4244;SDS011;2136;48.502;9.194;2023-04-24T12:26:11;1.23;;;1.13;;
4244;SDS011;2136;48.502;9.194;2023-04-24T12:28:38;2.80;;;1.07;;
4244;SDS011;2136;48.502;9.194;2023-04-24T12:31:07;3.63;;;1.17;;
4244;SDS011;2136;48.502;9.194;2023-04-24T12:33:34;2.27;;;0.93;;
4244;SDS011;2136;48.502;9.194;2023-04-24T12:36:01;1.27;;;1.17;;
4244;SDS011;2136;48.502;9.194;2023-04-24T12:38:30;2.13;;;1.30;;
4244;SDS011;2136;48.502;9.194;2023-04-24T12:41:05;3.07;;;1.13;;
4244;SDS011;2136;48.502;9.194;2023-04-24T12:43:33;2.40;;;0.90;;
4244;SDS011;2136;48.502;9.194;2023-04-24T12:46:00;1.13;;;1.00;;
4244;SDS011;2136;48.502;9.194;2023-04-24T12:48:28;1.07;;;1.07;;
4244;SDS011;2136;48.502;9.194;2023-04-24T12:50:56;2.00;;;1.40;;
4244;SDS011;2136;48.502;9.194;2023-04-24T12:53:26;1.30;;;1.20;;
4244;SDS011;2136;48.502;9.194;2023-04-24T12:55:54;1.63;;;1.23;;
4244;SDS011;2136;48.502;9.194;2023-04-24T12:58:21;1.57;;;1.47;;
4244;SDS011;2136;48.502;9.194;2023-04-24T13:00:48;1.23;;;1.13;;
4244;SDS011;2136;48.502;9.194;2023-04-24T13:03:15;1.20;;;1.10;;
4244;SDS011;2136;48.502;9.194;2023-04-24T13:05:43;3.80;;;1.40;;
4244;SDS011;2136;48.502;9.194;2023-04-24T13:08:10;1.77;;;1.03;;
4244;SDS011;2136;48.502;9.194;2023-04-24T13:10:38;1.43;;;1.33;;
4244;SDS011;2136;48.502;9.194;2023-04-24T13:13:05;3.23;;;1.20;;
4244;SDS011;2136;48.502;9.194;2023-04-24T13:15:32;2.00;;;1.07;;
4244;SDS011;2136;48.502;9.194;2023-04-24T13:17:59;1.40;;;1.30;;
4244;SDS011;2136;48.502;9.194;2023-04-24T13:20:26;5.27;;;1.53;;
4244;SDS011;2136;48.502;9.194;2023-04-24T13:22:54;2.50;;;1.27;;
4244;SDS011;2136;48.502;9.194;2023-04-24T13:25:21;1.50;;;1.40;;
4244;SDS011;2136;48.502;9.194;2023-04-24T13:27:49;1.47;;;1.30;;
4244;SDS011;2136;48.502;9.194;2023-04-24T13:30:17;1.20;;;1.10;;
4244;SDS011;2136;48.502;9.194;2023-04-24T13:32:44;1.40;;;1.37;;
4244;SDS011;2136;48.502;9.194;2023-04-24T13:35:11;1.77;;;1.20;;
4244;SDS011;2136;48.502;9.194;2023-04-24T13:37:38;1.40;;;1.30;;
4244;SDS011;2136;48.502;9.194;2023-04-24T13:40:06;1.40;;;1.30;;
4244;SDS011;2136;48.502;9.194;2023-04-24T13:42:34;2.13;;;1.93;;
4244;SDS011;2136;48.502;9.194;2023-04-24T13:45:01;6.60;;;1.07;;
4244;SDS011;2136;48.502;9.194;2023-04-24T13:47:28;4.73;;;1.37;;
4244;SDS011;2136;48.502;9.194;2023-04-24T13:49:55;1.20;;;1.20;;
4244;SDS011;2136;48.502;9.194;2023-04-24T13:52:22;2.20;;;1.30;;
4244;SDS011;2136;48.502;9.194;2023-04-24T13:54:49;1.30;;;1.20;;
4244;SDS011;2136;48.502;9.194;2023-04-24T13:57:17;1.57;;;1.47;;
4244;SDS011;2136;48.502;9.194;2023-04-24T13:59:44;1.73;;;1.27;;
4244;SDS011;2136;48.502;9.194;2023-04-24T14:02:11;1.67;;;1.20;;
4244;SDS011;2136;48.502;9.194;2023-04-24T14:04:38;1.73;;;1.07;;
4244;SDS011;2136;48.502;9.194;2023-04-24T14:07:05;1.10;;;1.10;;
4244;SDS011;2136;48.502;9.194;2023-04-24T14:09:33;1.30;;;1.20;;
4244;SDS011;2136;48.502;9.194;2023-04-24T14:11:59;3.30;;;1.43;;
4244;SDS011;2136;48.502;9.194;2023-04-24T14:14:28;1.50;;;1.40;;
4244;SDS011;2136;48.502;9.194;2023-04-24T14:16:56;1.57;;;1.47;;
4244;SDS011;2136;48.502;9.194;2023-04-24T14:19:23;2.40;;;1.20;;
4244;SDS011;2136;48.502;9.194;2023-04-24T14:21:50;1.30;;;1.30;;
4244;SDS011;2136;48.502;9.194;2023-04-24T14:24:17;2.17;;;1.30;;
4244;SDS011;2136;48.502;9.194;2023-04-24T14:26:44;1.37;;;1.30;;
4244;SDS011;2136;48.502;9.194;2023-04-24T14:29:11;1.90;;;1.80;;
4244;SDS011;2136;48.502;9.194;2023-04-24T14:31:40;2.27;;;1.20;;
4244;SDS011;2136;48.502;9.194;2023-04-24T14:34:06;1.30;;;1.20;;
4244;SDS011;2136;48.502;9.194;2023-04-24T14:36:34;1.63;;;1.53;;
4244;SDS011;2136;48.502;9.194;2023-04-24T14:39:01;3.93;;;1.30;;
4244;SDS011;2136;48.502;9.194;2023-04-24T14:41:31;1.63;;;1.50;;
4244;SDS011;2136;48.502;9.194;2023-04-24T14:44:00;1.90;;;1.60;;
4244;SDS011;2136;48.502;9.194;2023-04-24T14:46:28;1.47;;;1.30;;
4244;SDS011;2136;48.502;9.194;2023-04-24T14:48:56;1.60;;;1.50;;
4244;SDS011;2136;48.502;9.194;2023-04-24T14:51:24;1.40;;;1.40;;
4244;SDS011;2136;48.502;9.194;2023-04-24T14:53:51;1.43;;;1.33;;
4244;SDS011;2136;48.502;9.194;2023-04-24T14:56:18;1.60;;;1.47;;
4244;SDS011;2136;48.502;9.194;2023-04-24T14:58:45;1.37;;;1.27;;
4244;SDS011;2136;48.502;9.194;2023-04-24T15:01:12;1.60;;;1.50;;
4244;SDS011;2136;48.502;9.194;2023-04-24T15:03:39;1.67;;;1.57;;
4244;SDS011;2136;48.502;9.194;2023-04-24T15:06:08;2.77;;;1.60;;
4244;SDS011;2136;48.502;9.194;2023-04-24T15:08:35;3.47;;;1.67;;
4244;SDS011;2136;48.502;9.194;2023-04-24T15:11:01;1.53;;;1.43;;
4244;SDS011;2136;48.502;9.194;2023-04-24T15:13:28;1.30;;;1.20;;
4244;SDS011;2136;48.502;9.194;2023-04-24T15:15:55;2.10;;;1.50;;
4244;SDS011;2136;48.502;9.194;2023-04-24T15:18:22;1.63;;;1.40;;
4244;SDS011;2136;48.502;9.194;2023-04-24T15:20:49;2.00;;;1.80;;